sensor_id;sensor_type;location;lat;lon;timestamp;temperature;humidity
45233;DHT22;30969;51.052;17.056;2023-06-22T00:00:14;27.40;51.40
45233;DHT22;30969;51.052;17.056;2023-06-22T00:05:38;27.40;51.90
45233;DHT22;30969;51.052;17.056;2023-06-22T00:10:43;27.30;52.00
45233;DHT22;30969;51.052;17.056;2023-06-22T00:15:46;27.30;52.00
45233;DHT22;30969;51.052;17.056;2023-06-22T00:20:50;27.30;52.10
45233;DHT22;30969;51.052;17.056;2023-06-22T00:26:00;27.20;52.20
45233;DHT22;30969;51.052;17.056;2023-06-22T00:31:04;27.10;52.20
45233;DHT22;30969;51.052;17.056;2023-06-22T00:36:07;27.20;52.30
45233;DHT22;30969;51.052;17.056;2023-06-22T00:41:12;27.10;52.30
45233;DHT22;30969;51.052;17.056;2023-06-22T00:46:16;27.10;52.10
45233;DHT22;30969;51.052;17.056;2023-06-22T00:51:19;27.10;52.30
45233;DHT22;30969;51.052;17.056;2023-06-22T00:56:28;27.10;52.30
45233;DHT22;30969;51.052;17.056;2023-06-22T01:01:32;27.00;52.30
45233;DHT22;30969;51.052;17.056;2023-06-22T01:06:42;27.00;52.70
45233;DHT22;30969;51.052;17.056;2023-06-22T01:11:54;26.90;53.00
45233;DHT22;30969;51.052;17.056;2023-06-22T01:17:00;26.90;53.00
45233;DHT22;30969;51.052;17.056;2023-06-22T01:22:05;26.80;52.80
45233;DHT22;30969;51.052;17.056;2023-06-22T01:27:24;26.80;53.20
45233;DHT22;30969;51.052;17.056;2023-06-22T01:32:34;26.70;53.80
45233;DHT22;30969;51.052;17.056;2023-06-22T01:37:39;26.60;54.60
45233;DHT22;30969;51.052;17.056;2023-06-22T01:42:43;26.50;54.60
45233;DHT22;30969;51.052;17.056;2023-06-22T01:47:49;26.40;54.40
45233;DHT22;30969;51.052;17.056;2023-06-22T01:52:52;26.30;54.50
45233;DHT22;30969;51.052;17.056;2023-06-22T01:57:56;26.20;54.20
45233;DHT22;30969;51.052;17.056;2023-06-22T02:03:05;26.20;54.40
45233;DHT22;30969;51.052;17.056;2023-06-22T02:08:13;26.20;54.50
45233;DHT22;30969;51.052;17.056;2023-06-22T02:13:20;26.10;54.50
45233;DHT22;30969;51.052;17.056;2023-06-22T02:18:25;26.10;54.60
45233;DHT22;30969;51.052;17.056;2023-06-22T02:23:29;26.00;54.30
45233;DHT22;30969;51.052;17.056;2023-06-22T02:28:32;26.00;54.30
45233;DHT22;30969;51.052;17.056;2023-06-22T02:33:37;26.00;54.90
45233;DHT22;30969;51.052;17.056;2023-06-22T02:38:41;25.90;55.00
45233;DHT22;30969;51.052;17.056;2023-06-22T02:43:50;25.90;55.20
45233;DHT22;30969;51.052;17.056;2023-06-22T02:48:55;25.80;55.20
45233;DHT22;30969;51.052;17.056;2023-06-22T02:53:59;25.80;55.40
45233;DHT22;30969;51.052;17.056;2023-06-22T02:59:03;25.70;55.80
45233;DHT22;30969;51.052;17.056;2023-06-22T03:04:08;25.60;55.40
45233;DHT22;30969;51.052;17.056;2023-06-22T03:09:12;25.60;55.20
45233;DHT22;30969;51.052;17.056;2023-06-22T03:14:16;25.60;56.20
45233;DHT22;30969;51.052;17.056;2023-06-22T03:19:20;25.50;54.80
45233;DHT22;30969;51.052;17.056;2023-06-22T03:24:24;25.50;54.20
45233;DHT22;30969;51.052;17.056;2023-06-22T03:29:28;25.50;53.90
45233;DHT22;30969;51.052;17.056;2023-06-22T03:34:34;25.50;53.80
45233;DHT22;30969;51.052;17.056;2023-06-22T03:39:39;25.50;53.40
45233;DHT22;30969;51.052;17.056;2023-06-22T03:44:42;25.50;53.20
45233;DHT22;30969;51.052;17.056;2023-06-22T03:49:47;25.50;52.80
45233;DHT22;30969;51.052;17.056;2023-06-22T03:54:51;25.40;53.20
45233;DHT22;30969;51.052;17.056;2023-06-22T03:59:57;25.50;53.20
45233;DHT22;30969;51.052;17.056;2023-06-22T04:05:02;25.50;52.90
45233;DHT22;30969;51.052;17.056;2023-06-22T04:10:07;25.50;52.70
45233;DHT22;30969;51.052;17.056;2023-06-22T04:15:14;25.60;52.90
45233;DHT22;30969;51.052;17.056;2023-06-22T04:20:19;25.60;52.80
45233;DHT22;30969;51.052;17.056;2023-06-22T04:25:23;25.60;52.80
45233;DHT22;30969;51.052;17.056;2023-06-22T04:30:26;25.70;52.90
45233;DHT22;30969;51.052;17.056;2023-06-22T04:35:32;25.70;53.60
45233;DHT22;30969;51.052;17.056;2023-06-22T04:40:36;25.70;52.40
45233;DHT22;30969;51.052;17.056;2023-06-22T04:45:40;25.80;52.80
45233;DHT22;30969;51.052;17.056;2023-06-22T04:50:45;25.80;53.00
45233;DHT22;30969;51.052;17.056;2023-06-22T04:55:49;25.80;52.80
45233;DHT22;30969;51.052;17.056;2023-06-22T05:00:55;25.80;52.90
45233;DHT22;30969;51.052;17.056;2023-06-22T05:06:02;25.90;53.00
45233;DHT22;30969;51.052;17.056;2023-06-22T05:11:06;25.90;53.10
45233;DHT22;30969;51.052;17.056;2023-06-22T05:16:09;25.90;53.00
45233;DHT22;30969;51.052;17.056;2023-06-22T05:21:15;25.90;53.00
45233;DHT22;30969;51.052;17.056;2023-06-22T05:26:20;25.90;53.50
45233;DHT22;30969;51.052;17.056;2023-06-22T05:31:23;26.00;54.00
45233;DHT22;30969;51.052;17.056;2023-06-22T05:36:31;26.00;54.10
45233;DHT22;30969;51.052;17.056;2023-06-22T05:41:34;25.90;54.50
45233;DHT22;30969;51.052;17.056;2023-06-22T05:46:40;25.90;54.80
45233;DHT22;30969;51.052;17.056;2023-06-22T05:51:48;25.90;55.00
45233;DHT22;30969;51.052;17.056;2023-06-22T05:56:52;25.90;54.90
45233;DHT22;30969;51.052;17.056;2023-06-22T06:01:55;25.90;54.80
45233;DHT22;30969;51.052;17.056;2023-06-22T06:07:01;26.00;54.80
45233;DHT22;30969;51.052;17.056;2023-06-22T06:12:05;25.90;54.70
45233;DHT22;30969;51.052;17.056;2023-06-22T06:17:08;26.00;54.60
45233;DHT22;30969;51.052;17.056;2023-06-22T06:22:13;25.90;54.30
45233;DHT22;30969;51.052;17.056;2023-06-22T06:27:17;26.00;54.30
45233;DHT22;30969;51.052;17.056;2023-06-22T06:32:21;26.00;54.10
45233;DHT22;30969;51.052;17.056;2023-06-22T06:37:26;26.10;53.90
45233;DHT22;30969;51.052;17.056;2023-06-22T06:42:30;26.10;53.80
45233;DHT22;30969;51.052;17.056;2023-06-22T06:47:34;26.10;53.70
45233;DHT22;30969;51.052;17.056;2023-06-22T06:52:40;26.20;53.60
45233;DHT22;30969;51.052;17.056;2023-06-22T06:57:43;26.20;53.50
45233;DHT22;30969;51.052;17.056;2023-06-22T07:02:50;26.20;53.60
45233;DHT22;30969;51.052;17.056;2023-06-22T07:07:55;26.20;53.40
45233;DHT22;30969;51.052;17.056;2023-06-22T07:12:59;26.30;53.60
45233;DHT22;30969;51.052;17.056;2023-06-22T07:18:03;26.30;53.40
45233;DHT22;30969;51.052;17.056;2023-06-22T07:23:08;26.30;53.30
45233;DHT22;30969;51.052;17.056;2023-06-22T07:28:12;26.30;53.30
45233;DHT22;30969;51.052;17.056;2023-06-22T07:33:15;26.40;53.40
45233;DHT22;30969;51.052;17.056;2023-06-22T07:38:21;26.40;53.40
45233;DHT22;30969;51.052;17.056;2023-06-22T07:43:24;26.50;53.40
45233;DHT22;30969;51.052;17.056;2023-06-22T07:48:28;26.50;53.50
45233;DHT22;30969;51.052;17.056;2023-06-22T07:53:33;26.60;53.70
45233;DHT22;30969;51.052;17.056;2023-06-22T07:58:38;26.60;53.70
45233;DHT22;30969;51.052;17.056;2023-06-22T08:03:42;26.70;53.90
45233;DHT22;30969;51.052;17.056;2023-06-22T08:08:47;26.70;54.00
45233;DHT22;30969;51.052;17.056;2023-06-22T08:13:51;26.80;54.10
45233;DHT22;30969;51.052;17.056;2023-06-22T08:18:58;26.80;54.00
45233;DHT22;30969;51.052;17.056;2023-06-22T08:24:03;26.90;54.10
45233;DHT22;30969;51.052;17.056;2023-06-22T08:29:07;26.90;54.00
45233;DHT22;30969;51.052;17.056;2023-06-22T08:34:11;26.90;53.80
45233;DHT22;30969;51.052;17.056;2023-06-22T08:39:19;26.90;53.70
45233;DHT22;30969;51.052;17.056;2023-06-22T08:44:23;27.00;53.80
45233;DHT22;30969;51.052;17.056;2023-06-22T08:49:27;27.00;53.80
45233;DHT22;30969;51.052;17.056;2023-06-22T08:54:32;27.10;53.50
45233;DHT22;30969;51.052;17.056;2023-06-22T08:59:36;27.10;53.30
45233;DHT22;30969;51.052;17.056;2023-06-22T09:04:40;27.10;53.30
45233;DHT22;30969;51.052;17.056;2023-06-22T09:09:45;27.20;53.40
45233;DHT22;30969;51.052;17.056;2023-06-22T09:14:49;27.20;53.20
45233;DHT22;30969;51.052;17.056;2023-06-22T09:19:53;27.30;53.00
45233;DHT22;30969;51.052;17.056;2023-06-22T09:24:58;27.40;53.00
45233;DHT22;30969;51.052;17.056;2023-06-22T09:30:04;27.40;52.40
45233;DHT22;30969;51.052;17.056;2023-06-22T09:35:09;27.40;52.10
45233;DHT22;30969;51.052;17.056;2023-06-22T09:40:19;27.50;52.10
45233;DHT22;30969;51.052;17.056;2023-06-22T09:45:23;27.50;52.10
45233;DHT22;30969;51.052;17.056;2023-06-22T09:50:26;27.50;52.00
45233;DHT22;30969;51.052;17.056;2023-06-22T09:55:32;27.60;52.00
45233;DHT22;30969;51.052;17.056;2023-06-22T10:00:36;27.70;52.00
45233;DHT22;30969;51.052;17.056;2023-06-22T10:05:39;27.70;51.90
45233;DHT22;30969;51.052;17.056;2023-06-22T10:10:44;27.80;51.90
45233;DHT22;30969;51.052;17.056;2023-06-22T10:15:48;27.80;51.80
45233;DHT22;30969;51.052;17.056;2023-06-22T10:20:54;27.90;51.70
45233;DHT22;30969;51.052;17.056;2023-06-22T10:25:59;28.00;51.30
45233;DHT22;30969;51.052;17.056;2023-06-22T10:31:02;28.00;50.90
45233;DHT22;30969;51.052;17.056;2023-06-22T10:36:06;28.10;50.60
45233;DHT22;30969;51.052;17.056;2023-06-22T10:41:11;28.10;50.40
45233;DHT22;30969;51.052;17.056;2023-06-22T10:46:15;28.20;49.90
45233;DHT22;30969;51.052;17.056;2023-06-22T10:51:19;28.20;49.60
45233;DHT22;30969;51.052;17.056;2023-06-22T10:56:24;28.30;49.50
45233;DHT22;30969;51.052;17.056;2023-06-22T11:01:27;28.40;49.40
45233;DHT22;30969;51.052;17.056;2023-06-22T11:06:37;28.40;49.00
45233;DHT22;30969;51.052;17.056;2023-06-22T11:11:42;28.50;48.50
45233;DHT22;30969;51.052;17.056;2023-06-22T11:16:45;28.60;48.10
45233;DHT22;30969;51.052;17.056;2023-06-22T11:21:49;28.60;47.70
45233;DHT22;30969;51.052;17.056;2023-06-22T11:26:54;28.70;47.80
45233;DHT22;30969;51.052;17.056;2023-06-22T11:32:01;28.70;47.10
45233;DHT22;30969;51.052;17.056;2023-06-22T11:37:04;28.80;47.30
45233;DHT22;30969;51.052;17.056;2023-06-22T11:42:10;28.90;47.30
45233;DHT22;30969;51.052;17.056;2023-06-22T11:47:13;28.90;46.80
45233;DHT22;30969;51.052;17.056;2023-06-22T11:52:17;29.00;46.50
45233;DHT22;30969;51.052;17.056;2023-06-22T11:57:23;29.00;46.40
45233;DHT22;30969;51.052;17.056;2023-06-22T12:02:26;29.10;46.60
45233;DHT22;30969;51.052;17.056;2023-06-22T12:07:30;29.20;46.50
45233;DHT22;30969;51.052;17.056;2023-06-22T12:12:35;29.40;46.20
45233;DHT22;30969;51.052;17.056;2023-06-22T12:17:40;29.50;45.00
45233;DHT22;30969;51.052;17.056;2023-06-22T12:22:44;29.60;44.70
45233;DHT22;30969;51.052;17.056;2023-06-22T12:27:49;29.70;45.20
45233;DHT22;30969;51.052;17.056;2023-06-22T12:32:52;29.80;44.90
45233;DHT22;30969;51.052;17.056;2023-06-22T12:37:58;30.00;44.70
45233;DHT22;30969;51.052;17.056;2023-06-22T12:43:03;30.10;44.70
45233;DHT22;30969;51.052;17.056;2023-06-22T12:48:06;30.20;44.30
45233;DHT22;30969;51.052;17.056;2023-06-22T12:53:10;30.40;45.00
45233;DHT22;30969;51.052;17.056;2023-06-22T12:58:15;30.60;44.10
45233;DHT22;30969;51.052;17.056;2023-06-22T13:03:19;30.70;42.50
45233;DHT22;30969;51.052;17.056;2023-06-22T13:08:23;30.80;43.30
45233;DHT22;30969;51.052;17.056;2023-06-22T13:13:47;31.00;43.10
45233;DHT22;30969;51.052;17.056;2023-06-22T13:18:51;31.10;41.90
45233;DHT22;30969;51.052;17.056;2023-06-22T13:23:55;31.30;42.20
45233;DHT22;30969;51.052;17.056;2023-06-22T13:29:00;31.40;41.80
45233;DHT22;30969;51.052;17.056;2023-06-22T13:34:04;31.50;42.60
45233;DHT22;30969;51.052;17.056;2023-06-22T13:39:07;31.70;42.80
45233;DHT22;30969;51.052;17.056;2023-06-22T13:44:12;31.90;41.90
45233;DHT22;30969;51.052;17.056;2023-06-22T13:49:15;32.00;41.60
45233;DHT22;30969;51.052;17.056;2023-06-22T13:54:20;32.20;41.70
45233;DHT22;30969;51.052;17.056;2023-06-22T13:59:32;32.40;41.70
45233;DHT22;30969;51.052;17.056;2023-06-22T14:04:36;32.70;41.60
45233;DHT22;30969;51.052;17.056;2023-06-22T14:09:39;33.00;42.00
45233;DHT22;30969;51.052;17.056;2023-06-22T14:14:45;33.30;41.80
45233;DHT22;30969;51.052;17.056;2023-06-22T14:19:49;33.70;42.10
45233;DHT22;30969;51.052;17.056;2023-06-22T14:24:58;34.00;42.30
45233;DHT22;30969;51.052;17.056;2023-06-22T14:30:05;34.40;41.50
45233;DHT22;30969;51.052;17.056;2023-06-22T14:35:08;34.60;39.10
45233;DHT22;30969;51.052;17.056;2023-06-22T14:40:12;34.80;37.40
45233;DHT22;30969;51.052;17.056;2023-06-22T14:45:17;35.20;36.40
45233;DHT22;30969;51.052;17.056;2023-06-22T14:50:21;35.40;33.80
45233;DHT22;30969;51.052;17.056;2023-06-22T14:55:25;35.70;32.20
45233;DHT22;30969;51.052;17.056;2023-06-22T15:00:29;36.00;31.90
45233;DHT22;30969;51.052;17.056;2023-06-22T15:05:33;36.30;32.50
45233;DHT22;30969;51.052;17.056;2023-06-22T15:10:37;36.60;32.40
45233;DHT22;30969;51.052;17.056;2023-06-22T15:15:42;36.90;32.00
45233;DHT22;30969;51.052;17.056;2023-06-22T15:20:46;37.20;31.50
45233;DHT22;30969;51.052;17.056;2023-06-22T15:25:50;37.30;29.80
45233;DHT22;30969;51.052;17.056;2023-06-22T15:30:55;37.40;28.30
45233;DHT22;30969;51.052;17.056;2023-06-22T15:35:59;37.50;27.90
45233;DHT22;30969;51.052;17.056;2023-06-22T15:41:07;37.70;27.60
45233;DHT22;30969;51.052;17.056;2023-06-22T15:46:15;37.90;27.30
45233;DHT22;30969;51.052;17.056;2023-06-22T15:51:20;38.00;27.20
45233;DHT22;30969;51.052;17.056;2023-06-22T15:56:23;38.20;26.90
45233;DHT22;30969;51.052;17.056;2023-06-22T16:01:29;38.30;26.90
45233;DHT22;30969;51.052;17.056;2023-06-22T16:06:38;38.50;26.50
45233;DHT22;30969;51.052;17.056;2023-06-22T16:11:44;38.60;26.30
45233;DHT22;30969;51.052;17.056;2023-06-22T16:16:49;38.60;26.10
45233;DHT22;30969;51.052;17.056;2023-06-22T16:21:53;38.70;26.20
45233;DHT22;30969;51.052;17.056;2023-06-22T16:26:57;38.70;26.10
45233;DHT22;30969;51.052;17.056;2023-06-22T16:32:02;38.80;26.10
45233;DHT22;30969;51.052;17.056;2023-06-22T16:37:06;38.70;26.10
45233;DHT22;30969;51.052;17.056;2023-06-22T16:42:12;38.70;26.20
45233;DHT22;30969;51.052;17.056;2023-06-22T16:47:18;38.60;26.40
45233;DHT22;30969;51.052;17.056;2023-06-22T16:52:21;38.60;26.70
45233;DHT22;30969;51.052;17.056;2023-06-22T16:57:25;38.40;27.00
45233;DHT22;30969;51.052;17.056;2023-06-22T17:02:32;38.30;27.40
45233;DHT22;30969;51.052;17.056;2023-06-22T17:07:37;38.00;27.60
45233;DHT22;30969;51.052;17.056;2023-06-22T17:12:45;37.80;28.00
45233;DHT22;30969;51.052;17.056;2023-06-22T17:17:51;37.60;28.00
45233;DHT22;30969;51.052;17.056;2023-06-22T17:22:56;37.30;27.80
45233;DHT22;30969;51.052;17.056;2023-06-22T17:27:59;37.20;28.20
45233;DHT22;30969;51.052;17.056;2023-06-22T17:33:08;36.90;28.10
45233;DHT22;30969;51.052;17.056;2023-06-22T17:38:19;36.60;28.10
45233;DHT22;30969;51.052;17.056;2023-06-22T17:43:23;36.20;28.20
45233;DHT22;30969;51.052;17.056;2023-06-22T17:48:29;35.90;28.50
45233;DHT22;30969;51.052;17.056;2023-06-22T17:53:34;35.60;28.80
45233;DHT22;30969;51.052;17.056;2023-06-22T17:58:56;35.30;29.10
45233;DHT22;30969;51.052;17.056;2023-06-22T18:04:05;35.10;30.10
45233;DHT22;30969;51.052;17.056;2023-06-22T18:09:11;34.80;29.70
45233;DHT22;30969;51.052;17.056;2023-06-22T18:14:15;34.50;29.90
45233;DHT22;30969;51.052;17.056;2023-06-22T18:19:21;34.30;30.10
45233;DHT22;30969;51.052;17.056;2023-06-22T18:24:27;34.10;30.50
45233;DHT22;30969;51.052;17.056;2023-06-22T18:29:32;33.80;30.80
45233;DHT22;30969;51.052;17.056;2023-06-22T18:34:38;33.60;31.30
45233;DHT22;30969;51.052;17.056;2023-06-22T18:39:43;33.40;31.60
45233;DHT22;30969;51.052;17.056;2023-06-22T18:44:52;33.20;31.90
45233;DHT22;30969;51.052;17.056;2023-06-22T18:50:06;33.00;32.00
45233;DHT22;30969;51.052;17.056;2023-06-22T18:55:11;32.70;32.00
45233;DHT22;30969;51.052;17.056;2023-06-22T19:00:16;32.60;32.10
45233;DHT22;30969;51.052;17.056;2023-06-22T19:05:38;32.40;31.90
45233;DHT22;30969;51.052;17.056;2023-06-22T19:10:42;32.20;31.80
45233;DHT22;30969;51.052;17.056;2023-06-22T19:15:47;32.00;31.90
45233;DHT22;30969;51.052;17.056;2023-06-22T19:20:53;31.90;32.00
45233;DHT22;30969;51.052;17.056;2023-06-22T19:26:04;31.70;32.20
45233;DHT22;30969;51.052;17.056;2023-06-22T19:31:10;31.60;32.40
45233;DHT22;30969;51.052;17.056;2023-06-22T19:36:19;31.40;32.50
45233;DHT22;30969;51.052;17.056;2023-06-22T19:41:23;31.30;32.70
45233;DHT22;30969;51.052;17.056;2023-06-22T19:46:31;31.10;32.80
45233;DHT22;30969;51.052;17.056;2023-06-22T19:51:37;30.90;34.00
45233;DHT22;30969;51.052;17.056;2023-06-22T19:56:41;30.70;33.20
45233;DHT22;30969;51.052;17.056;2023-06-22T20:01:55;30.70;34.50
45233;DHT22;30969;51.052;17.056;2023-06-22T20:07:07;30.80;33.40
45233;DHT22;30969;51.052;17.056;2023-06-22T20:12:22;31.00;33.20
45233;DHT22;30969;51.052;17.056;2023-06-22T20:17:26;31.00;32.90
45233;DHT22;30969;51.052;17.056;2023-06-22T20:22:31;31.10;32.60
45233;DHT22;30969;51.052;17.056;2023-06-22T20:27:35;31.20;32.60
45233;DHT22;30969;51.052;17.056;2023-06-22T20:32:46;31.20;32.60
45233;DHT22;30969;51.052;17.056;2023-06-22T20:37:52;31.30;33.60
45233;DHT22;30969;51.052;17.056;2023-06-22T20:42:57;31.30;32.30
45233;DHT22;30969;51.052;17.056;2023-06-22T20:48:02;31.30;32.10
45233;DHT22;30969;51.052;17.056;2023-06-22T20:53:11;31.40;32.20
45233;DHT22;30969;51.052;17.056;2023-06-22T20:58:17;31.40;32.20
45233;DHT22;30969;51.052;17.056;2023-06-22T21:03:25;31.20;32.20
45233;DHT22;30969;51.052;17.056;2023-06-22T21:08:34;30.90;32.40
45233;DHT22;30969;51.052;17.056;2023-06-22T21:13:40;30.70;32.80
45233;DHT22;30969;51.052;17.056;2023-06-22T21:18:45;30.60;33.00
45233;DHT22;30969;51.052;17.056;2023-06-22T21:23:51;30.50;33.10
45233;DHT22;30969;51.052;17.056;2023-06-22T21:28:55;30.30;33.30
45233;DHT22;30969;51.052;17.056;2023-06-22T21:33:59;30.10;33.40
45233;DHT22;30969;51.052;17.056;2023-06-22T21:39:04;30.00;33.60
45233;DHT22;30969;51.052;17.056;2023-06-22T21:44:08;29.80;33.70
45233;DHT22;30969;51.052;17.056;2023-06-22T21:49:12;29.70;33.70
45233;DHT22;30969;51.052;17.056;2023-06-22T21:54:17;29.60;33.80
45233;DHT22;30969;51.052;17.056;2023-06-22T21:59:20;29.50;33.90
45233;DHT22;30969;51.052;17.056;2023-06-22T22:04:24;29.40;33.90
45233;DHT22;30969;51.052;17.056;2023-06-22T22:09:29;29.30;34.10
45233;DHT22;30969;51.052;17.056;2023-06-22T22:14:33;29.20;34.10
45233;DHT22;30969;51.052;17.056;2023-06-22T22:19:36;29.10;34.10
45233;DHT22;30969;51.052;17.056;2023-06-22T22:24:42;29.00;34.30
45233;DHT22;30969;51.052;17.056;2023-06-22T22:29:46;28.90;34.20
45233;DHT22;30969;51.052;17.056;2023-06-22T22:34:50;28.80;34.20
45233;DHT22;30969;51.052;17.056;2023-06-22T22:39:55;28.70;34.30
45233;DHT22;30969;51.052;17.056;2023-06-22T22:45:00;28.60;34.30
45233;DHT22;30969;51.052;17.056;2023-06-22T22:50:07;28.60;34.30
45233;DHT22;30969;51.052;17.056;2023-06-22T22:55:15;28.50;34.30
45233;DHT22;30969;51.052;17.056;2023-06-22T23:00:20;28.50;34.40
45233;DHT22;30969;51.052;17.056;2023-06-22T23:05:25;28.40;34.50
45233;DHT22;30969;51.052;17.056;2023-06-22T23:10:30;28.40;34.50
45233;DHT22;30969;51.052;17.056;2023-06-22T23:15:33;28.30;34.40
45233;DHT22;30969;51.052;17.056;2023-06-22T23:20:37;28.30;34.60
45233;DHT22;30969;51.052;17.056;2023-06-22T23:25:42;28.20;34.60
45233;DHT22;30969;51.052;17.056;2023-06-22T23:30:48;28.20;34.70
45233;DHT22;30969;51.052;17.056;2023-06-22T23:35:53;28.10;34.70
45233;DHT22;30969;51.052;17.056;2023-06-22T23:40:58;28.00;34.90
45233;DHT22;30969;51.052;17.056;2023-06-22T23:46:02;27.90;35.00
45233;DHT22;30969;51.052;17.056;2023-06-22T23:51:07;27.90;35.10
45233;DHT22;30969;51.052;17.056;2023-06-22T23:56:12;27.80;35.20
